ADDS TAF Board (Experimental) INFO Settings
IDs: Format: Expanded Condensed

KMCO - Orlando Intl, FL, US

Issued at 1501 UTC 29 Jun 2016
Updated at: 1615 UTC 29 Jun 2016
Time1553Z 29/17Z 29/18Z 29/19Z 29/20Z 29/21Z 29/22Z 29/23Z 30/00Z 30/01Z 30/02Z 30/03Z 30/04Z 30/05Z
Type OBS PRVL PRVL PRVL PRVL
  [TEMP]  
PRVL
  [TEMP]  
PRVL
  [TEMP]  
PRVL PRVL PRVL PRVL PRVL PRVL PRVL
VIS 10 >6 >6 >6 >6
  [3]  
>6
  [3]  
>6
  [3]  
>6 >6 >6 >6 >6 >6 >6
CIG -- -- 60 60 60
  [30]  
60
  [30]  
60
  [30]  
60 100 100 100 100 100 100
Cover SCT SCT BKN BKN BKN
  [BKN]  
BKN
  [BKN]  
BKN
  [BKN]  
BKN BKN BKN BKN BKN BKN BKN
FltCat VFR VFR VFR VFR VFR
  [MVFR]  
VFR
  [MVFR]  
VFR
  [MVFR]  
VFR VFR VFR VFR VFR VFR VFR
WX -- -- VCTS VCTS VCTS
  [TSRA]  
VCTS
  [TSRA]  
VCTS
  [TSRA]  
VCTS VCSH VCSH VCSH VCSH VCSH VCSH
WDir VRB 220 210 210 210
[210]
210
[210]
210
[210]
210 190 190 190 190 190 190
WSpd 0 5 6 6 6
  [6]  
6
  [6]  
6
  [6]  
6 4 4 4 4 4 4
WGst -- -- -- -- --
  [--]  
--
  [--]  
--
  [--]  
-- -- -- -- -- -- --
R17/35
XWnd VRB -3 -3 -3 -3 -3 -3 -3 -1 -1 -1 -1 -1 -1
XGst -- -- -- -- 0 0 0 -- -- -- -- -- -- --
HWnd VRB 4 5 5 5 5 5 5 4 4 4 4 4 4
HGst -- -- -- -- 0 0 0 -- -- -- -- -- -- --
R18/36
XWnd VRB -3 -3 -3 -3 -3 -3 -3 -1 -1 -1 -1 -1 -1
XGst -- -- -- -- 0 0 0 -- -- -- -- -- -- --
HWnd VRB 4 5 5 5 5 5 5 4 4 4 4 4 4
HGst -- -- -- -- 0 0 0 -- -- -- -- -- -- --

NOTE: TEMPO conditions in [brackets]. Keep in mind TEMPO conditions might be better (lower impact) than prevailing conditions.

Raw TAF
KMCO 291501Z 2915/3012 22005KT P6SM SCT017 SCT150 SCT250
  FM291800 21006KT P6SM VCTS SCT035CB BKN060
  TEMPO 2920/2923 3SM TSRA BKN030CB
  FM300000 19004KT P6SM VCSH SCT035 BKN100 BKN250
  FM300600 18003KT P6SM SCT100 SCT250


Raw METAR
KMCO 291553Z 00000KT 10SM SCT031 SCT250 31/23 A3002 RMK AO2 SLP162 T03110233
KMCO 291453Z 21004KT 10SM SCT017 SCT150 SCT250 29/23 A3002 RMK AO2 SLP165 T02890228 51008
KMCO 291353Z 22004KT 10SM FEW009 SCT015 SCT140 BKN250 28/24 A3002 RMK AO2 SLP163 T02780244

METAR Board
Radar Display
Forecast Discussion

TAF Board Legend

Potential Impact
Threat None Slight Moderate High
Visibility (sm) ≥5.1 5.1>X≥3 3>X≥1 <1
Ceiling (100 ft) ≥30.1 30.1>X≥10 10>X≥5 <5
Wind Speed (kt) <10 10≤X<20 20≤X<30 ≥30
Wind Gust (kt) <15 15≤X<25 25≤X<35 ≥35
Weather No Wx Reported VCTS,-TS,-FZRA,SN TS,FZRA +TS,+FZRA,+SN